Coxs Creek, Kentucky
Current Conditions -  °F | °C
As of 10:56 AM on Thursday 30 Oct 2014 (Local Time) from KSDF Reporting Station
Few Clouds Few Clouds  
Wind Chill: 50°   Ceiling: Unl
Heat Index: 50°   Visibility: 10mi
Dew Point: 36°   Wind: 7mph
Humidity: 59%   Direction: NA
Pressure: 30.18"   Gusts: NA
Location:  37.92°N, 85.5°W
Report Text: KSDF 301456Z VRB06KT 10SM FEW025 10/02 A3018 RMK AO2 SLP221 T01000022 50002
Loading
Personal Weather Stations






























Interactive Weather Map
Tropical Storm Tracking
New forecast layout! Learn more

10-Day Weather Forecast

Advertisements
Track Severe Weather on mobile